Time;durP1;ratioP1;P1;durP2;ratioP2;P2;SDS_P1;SDS_P2;PMS_P1;PMS_P2;Temp;Humidity;BMP_temperature;BMP_pressure;BME280_temperature;BME280_humidity;BME280_pressure;Samples;Min_cycle;Max_cycle;Signal;HPM_P1;HPM_P2
2021/11/30 00:01:34;;;;;;;2.03;1.83;;;;;;;;;;4973778;28;20204;-92
2021/11/30 00:04:03;;;;;;;2.20;2.00;;;;;;;;;;4973953;28;20289;-92
2021/11/30 00:06:33;;;;;;;2.33;2.13;;;;;;;;;;4978482;28;20204;-92
2021/11/30 00:09:10;;;;;;;1.97;1.73;;;;;;;;;;4993164;28;20208;-91
2021/11/30 00:11:36;;;;;;;1.70;1.60;;;;;;;;;;4993194;28;20196;-91
2021/11/30 00:14:04;;;;;;;2.00;1.77;;;;;;;;;;4992900;28;20223;-91
2021/11/30 00:16:31;;;;;;;5.27;3.20;;;;;;;;;;4993157;28;20229;-92
2021/11/30 00:18:58;;;;;;;3.90;3.20;;;;;;;;;;4988300;28;20209;-91
2021/11/30 00:21:27;;;;;;;3.50;2.87;;;;;;;;;;4973650;28;20281;-91
2021/11/30 00:23:55;;;;;;;2.90;2.70;;;;;;;;;;4973600;28;20197;-91
2021/11/30 00:26:25;;;;;;;2.40;2.20;;;;;;;;;;4973918;28;20283;-90
2021/11/30 00:28:52;;;;;;;2.20;1.63;;;;;;;;;;4973938;28;20201;-91
2021/11/30 00:31:20;;;;;;;4.30;2.83;;;;;;;;;;4992374;28;20283;-92
2021/11/30 00:33:50;;;;;;;2.13;1.93;;;;;;;;;;4992846;28;20224;-91
2021/11/30 00:36:20;;;;;;;1.50;1.40;;;;;;;;;;4992934;28;20227;-91
2021/11/30 00:38:49;;;;;;;1.20;1.20;;;;;;;;;;4992976;28;20282;-92
2021/11/30 00:41:16;;;;;;;2.00;1.60;;;;;;;;;;4993391;28;20205;-91
2021/11/30 00:43:44;;;;;;;1.53;1.43;;;;;;;;;;4996586;28;20196;-91
2021/11/30 00:46:16;;;;;;;1.90;1.60;;;;;;;;;;4996334;28;20196;-91
2021/11/30 00:48:49;;;;;;;1.77;1.50;;;;;;;;;;4996336;28;20200;-91
2021/11/30 00:51:19;;;;;;;1.30;1.20;;;;;;;;;;4996239;28;20259;-91
2021/11/30 00:53:49;;;;;;;1.60;1.50;;;;;;;;;;4996463;28;20246;-91
2021/11/30 00:56:17;;;;;;;1.67;1.40;;;;;;;;;;4996007;28;20323;-91
2021/11/30 00:58:45;;;;;;;1.87;1.67;;;;;;;;;;4996036;28;20207;-92
2021/11/30 01:01:12;;;;;;;1.70;1.60;;;;;;;;;;4995991;28;20192;-90
2021/11/30 01:03:40;;;;;;;2.93;1.80;;;;;;;;;;4996074;28;20223;-92
2021/11/30 01:06:07;;;;;;;1.73;1.53;;;;;;;;;;4996038;28;20207;-91
2021/11/30 01:08:34;;;;;;;2.17;1.93;;;;;;;;;;4984838;28;20197;-91
2021/11/30 01:11:04;;;;;;;1.77;1.63;;;;;;;;;;4976361;28;20209;-90
2021/11/30 01:13:33;;;;;;;2.67;2.17;;;;;;;;;;4976196;28;20319;-91
2021/11/30 01:16:00;;;;;;;3.17;1.90;;;;;;;;;;4976377;28;20319;-90
2021/11/30 01:18:28;;;;;;;2.30;1.63;;;;;;;;;;4976670;28;20205;-90
2021/11/30 01:20:55;;;;;;;6.63;1.63;;;;;;;;;;4976237;28;20200;-91
2021/11/30 01:23:25;;;;;;;1.67;1.57;;;;;;;;;;4976539;28;20232;-92
2021/11/30 01:25:52;;;;;;;2.30;1.77;;;;;;;;;;4976678;28;20680;-91
2021/11/30 01:28:21;;;;;;;1.60;1.50;;;;;;;;;;4976033;28;20201;-91
2021/11/30 01:30:48;;;;;;;4.70;2.73;;;;;;;;;;4976030;28;20205;-91
2021/11/30 01:33:15;;;;;;;3.50;3.20;;;;;;;;;;4976151;28;20657;-92
2021/11/30 01:35:46;;;;;;;5.07;4.23;;;;;;;;;;4975964;28;20201;-92
2021/11/30 01:38:14;;;;;;;6.23;3.93;;;;;;;;;;4976159;28;20204;-92
2021/11/30 01:40:42;;;;;;;3.40;2.53;;;;;;;;;;4976257;28;20259;-90
2021/11/30 01:43:15;;;;;;;2.20;2.00;;;;;;;;;;4975937;28;20196;-93
2021/11/30 01:45:57;;;;;;;4.33;2.50;;;;;;;;;;4976211;28;20288;-92
2021/11/30 01:51:09;;;;;;;3.00;1.90;;;;;;;;;;4975559;28;20269;-92
2021/11/30 01:53:36;;;;;;;1.97;1.87;;;;;;;;;;4975356;28;20224;-92
2021/11/30 01:56:04;;;;;;;4.00;2.03;;;;;;;;;;4975800;28;20316;-93
2021/11/30 01:58:31;;;;;;;2.20;2.03;;;;;;;;;;4975738;28;20200;-92
2021/11/30 02:01:00;;;;;;;3.73;2.67;;;;;;;;;;4976124;28;20199;-92
2021/11/30 02:03:28;;;;;;;4.10;2.20;;;;;;;;;;4975635;28;20201;-92
2021/11/30 02:05:55;;;;;;;4.27;2.00;;;;;;;;;;4975361;28;20674;-93
2021/11/30 02:08:23;;;;;;;3.33;2.67;;;;;;;;;;4975593;28;20197;-93
2021/11/30 02:10:51;;;;;;;4.37;2.57;;;;;;;;;;4975663;28;20209;-93
2021/11/30 02:13:25;;;;;;;2.70;2.50;;;;;;;;;;4975498;28;20197;-93
2021/11/30 02:16:01;;;;;;;3.17;2.87;;;;;;;;;;4975314;28;20196;-94
2021/11/30 02:18:29;;;;;;;4.90;2.90;;;;;;;;;;4975682;28;20256;-94
2021/11/30 02:20:59;;;;;;;3.30;2.73;;;;;;;;;;4975431;28;20685;-94
2021/11/30 02:23:35;;;;;;;4.17;2.63;;;;;;;;;;4985591;28;20188;-93
2021/11/30 02:26:06;;;;;;;4.40;3.27;;;;;;;;;;4994597;28;20191;-95
2021/11/30 02:28:33;;;;;;;3.23;2.93;;;;;;;;;;4976378;28;20201;-94
2021/11/30 02:31:01;;;;;;;3.87;2.40;;;;;;;;;;4975165;28;20203;-94
2021/11/30 02:33:31;;;;;;;4.97;2.80;;;;;;;;;;4975254;28;20223;-94
2021/11/30 02:36:00;;;;;;;4.17;3.30;;;;;;;;;;4974967;28;20192;-94
2021/11/30 02:38:28;;;;;;;3.87;3.57;;;;;;;;;;4974869;28;20203;-95
2021/11/30 02:40:55;;;;;;;3.90;3.50;;;;;;;;;;4974550;28;20196;-96
2021/11/30 02:43:22;;;;;;;5.53;4.03;;;;;;;;;;4975215;28;20247;-95
2021/11/30 02:45:50;;;;;;;3.50;3.20;;;;;;;;;;4975500;28;20259;-95
2021/11/30 02:48:17;;;;;;;4.07;3.20;;;;;;;;;;4974536;28;20673;-96
2021/11/30 02:50:45;;;;;;;4.77;4.30;;;;;;;;;;4975319;28;20209;-96
2021/11/30 02:53:20;;;;;;;3.80;3.30;;;;;;;;;;4974913;28;20215;-95
2021/11/30 02:55:47;;;;;;;4.23;3.87;;;;;;;;;;4974171;28;20265;-95
2021/11/30 02:58:15;;;;;;;4.10;3.63;;;;;;;;;;4975024;28;20244;-95
2021/11/30 03:00:43;;;;;;;5.20;3.70;;;;;;;;;;4974605;28;20205;-95
2021/11/30 03:03:11;;;;;;;4.23;3.90;;;;;;;;;;4974711;28;20197;-96
2021/11/30 03:05:38;;;;;;;7.67;6.90;;;;;;;;;;4974033;28;20201;-96
2021/11/30 03:08:06;;;;;;;9.70;8.67;;;;;;;;;;4974561;28;20209;-94
2021/11/30 03:10:34;;;;;;;7.83;6.90;;;;;;;;;;4967293;28;20296;-94
2021/11/30 03:13:02;;;;;;;5.27;3.97;;;;;;;;;;4970437;28;20204;-94
2021/11/30 03:15:29;;;;;;;52.50;32.50;;;;;;;;;;4954766;29;20230;-94
2021/11/30 03:17:57;;;;;;;13.27;10.37;;;;;;;;;;4954879;29;20285;-95
2021/11/30 03:20:24;;;;;;;50.93;36.50;;;;;;;;;;4954940;29;20197;-95
2021/11/30 03:22:51;;;;;;;41.70;34.43;;;;;;;;;;4954903;28;20201;-94
2021/11/30 03:25:19;;;;;;;31.80;28.40;;;;;;;;;;4955060;29;20229;-96
2021/11/30 03:27:49;;;;;;;20.27;18.17;;;;;;;;;;4973848;28;20207;-96
2021/11/30 03:30:18;;;;;;;8.73;7.83;;;;;;;;;;4974336;28;20213;-94
2021/11/30 03:35:30;;;;;;;4.90;4.40;;;;;;;;;;4974089;28;20215;-93
2021/11/30 03:37:57;;;;;;;7.97;6.97;;;;;;;;;;4973798;28;20201;-92
2021/11/30 03:40:25;;;;;;;8.07;6.10;;;;;;;;;;4974012;28;20216;-90
2021/11/30 03:42:57;;;;;;;13.43;10.47;;;;;;;;;;4974058;28;20657;-90
2021/11/30 03:45:24;;;;;;;9.63;8.70;;;;;;;;;;4974113;28;20677;-90
2021/11/30 03:47:51;;;;;;;7.77;7.03;;;;;;;;;;4973931;28;20193;-90
2021/11/30 03:50:19;;;;;;;7.27;6.67;;;;;;;;;;4974459;28;20554;-90
2021/11/30 03:52:51;;;;;;;10.40;9.30;;;;;;;;;;4973975;28;20211;-92
2021/11/30 03:55:18;;;;;;;8.87;7.10;;;;;;;;;;4973748;28;20244;-91
2021/11/30 03:57:45;;;;;;;6.97;5.23;;;;;;;;;;4973603;28;20205;-92
2021/11/30 04:00:15;;;;;;;6.40;5.60;;;;;;;;;;4973813;28;20658;-94
2021/11/30 04:02:42;;;;;;;15.60;14.00;;;;;;;;;;4974001;28;20260;-91
2021/11/30 04:05:11;;;;;;;15.73;13.93;;;;;;;;;;4974033;28;20208;-91
2021/11/30 04:07:38;;;;;;;18.10;12.47;;;;;;;;;;4973611;28;20240;-92
2021/11/30 04:10:07;;;;;;;8.93;8.03;;;;;;;;;;4973569;28;20228;-92
2021/11/30 04:12:34;;;;;;;6.70;4.90;;;;;;;;;;4973739;28;20228;-92
2021/11/30 04:15:01;;;;;;;5.97;4.70;;;;;;;;;;4974074;28;20217;-91
2021/11/30 04:17:30;;;;;;;1.90;1.80;;;;;;;;;;4977952;28;20216;-91
2021/11/30 04:19:57;;;;;;;1.60;1.50;;;;;;;;;;4977158;28;20669;-92
2021/11/30 04:22:25;;;;;;;1.60;1.50;;;;;;;;;;4977501;28;20674;-92
2021/11/30 04:24:52;;;;;;;1.57;1.47;;;;;;;;;;4977460;28;20635;-91
2021/11/30 04:27:19;;;;;;;0.83;0.83;;;;;;;;;;4977283;28;20739;-92
2021/11/30 04:29:47;;;;;;;1.00;1.00;;;;;;;;;;4977151;28;20205;-92
2021/11/30 04:32:14;;;;;;;0.90;0.90;;;;;;;;;;4970162;28;20590;-92
2021/11/30 04:34:43;;;;;;;1.10;1.10;;;;;;;;;;4957660;29;20225;-92
2021/11/30 04:37:10;;;;;;;0.73;0.73;;;;;;;;;;4957911;28;20205;-92
2021/11/30 04:39:37;;;;;;;0.80;0.80;;;;;;;;;;4957692;29;20241;-92
2021/11/30 04:42:05;;;;;;;0.77;0.77;;;;;;;;;;4957483;29;20293;-92
2021/11/30 04:44:35;;;;;;;0.70;0.70;;;;;;;;;;4957878;29;20629;-92
2021/11/30 04:47:05;;;;;;;0.60;0.60;;;;;;;;;;4957558;29;20634;-92
2021/11/30 04:49:42;;;;;;;0.50;0.50;;;;;;;;;;4957991;28;20186;-93
2021/11/30 04:52:13;;;;;;;2.50;0.87;;;;;;;;;;4957649;29;20280;-92
2021/11/30 04:54:40;;;;;;;1.23;1.13;;;;;;;;;;4975398;28;20221;-91
2021/11/30 04:57:08;;;;;;;0.40;0.40;;;;;;;;;;4976257;28;20235;-90
2021/11/30 04:59:36;;;;;;;3.23;0.60;;;;;;;;;;4976626;28;20201;-91
2021/11/30 05:02:03;;;;;;;0.60;0.60;;;;;;;;;;4964008;28;20236;-90
2021/11/30 05:04:32;;;;;;;0.93;0.60;;;;;;;;;;4976745;28;20236;-92
2021/11/30 05:07:00;;;;;;;0.47;0.47;;;;;;;;;;4967832;28;20210;-93
2021/11/30 05:09:28;;;;;;;0.50;0.50;;;;;;;;;;4979357;28;20196;-92
2021/11/30 05:11:56;;;;;;;0.47;0.47;;;;;;;;;;4975917;28;20694;-92
2021/11/30 05:14:23;;;;;;;0.47;0.47;;;;;;;;;;4976129;28;20759;-93
2021/11/30 05:16:50;;;;;;;0.40;0.40;;;;;;;;;;4976330;28;20277;-96
2021/11/30 05:19:17;;;;;;;1.60;0.30;;;;;;;;;;4976168;28;20284;-92
2021/11/30 05:21:45;;;;;;;2.63;1.83;;;;;;;;;;4976549;28;20251;-93
2021/11/30 05:24:12;;;;;;;2.37;1.53;;;;;;;;;;4976292;28;20276;-91
2021/11/30 05:26:41;;;;;;;0.80;0.63;;;;;;;;;;4976365;28;20227;-92
2021/11/30 05:29:09;;;;;;;1.33;1.23;;;;;;;;;;4975865;28;20744;-93
2021/11/30 05:31:36;;;;;;;21.87;13.40;;;;;;;;;;4976603;28;20647;-92
2021/11/30 05:34:04;;;;;;;9.53;7.10;;;;;;;;;;4975978;28;20237;-92
2021/11/30 05:36:32;;;;;;;10.97;7.50;;;;;;;;;;4975946;28;20316;-93
2021/11/30 05:39:00;;;;;;;24.70;15.63;;;;;;;;;;4975890;28;20193;-92
2021/11/30 05:41:28;;;;;;;28.43;17.10;;;;;;;;;;4976177;28;20255;-93
2021/11/30 05:43:57;;;;;;;17.57;12.23;;;;;;;;;;4975901;28;20750;-92
2021/11/30 05:46:24;;;;;;;35.27;17.43;;;;;;;;;;4976158;28;20220;-94
2021/11/30 05:48:51;;;;;;;6.33;5.73;;;;;;;;;;4976077;28;20224;-92
2021/11/30 05:51:19;;;;;;;3.67;3.23;;;;;;;;;;4975980;28;20197;-93
2021/11/30 05:53:46;;;;;;;3.73;2.73;;;;;;;;;;4975926;28;20309;-93
2021/11/30 05:56:14;;;;;;;7.33;6.50;;;;;;;;;;4975272;28;20323;-93
2021/11/30 05:58:44;;;;;;;6.07;5.47;;;;;;;;;;4975805;28;20260;-93
2021/11/30 06:01:21;;;;;;;4.20;3.77;;;;;;;;;;4975812;28;20236;-93
2021/11/30 06:03:59;;;;;;;2.90;2.60;;;;;;;;;;4975711;28;20200;-93
2021/11/30 06:06:28;;;;;;;2.13;1.93;;;;;;;;;;4975644;28;20201;-93
2021/11/30 06:08:55;;;;;;;3.20;2.90;;;;;;;;;;4976071;28;20211;-92
2021/11/30 06:11:23;;;;;;;5.27;3.73;;;;;;;;;;4975567;28;20197;-93
2021/11/30 06:13:50;;;;;;;4.83;4.33;;;;;;;;;;4975982;28;20208;-92
2021/11/30 06:16:31;;;;;;;21.67;15.47;;;;;;;;;;4975687;28;20242;-93
2021/11/30 06:18:59;;;;;;;6.93;6.23;;;;;;;;;;4975740;28;20224;-93
2021/11/30 06:21:26;;;;;;;3.40;2.87;;;;;;;;;;4975703;28;20252;-92
2021/11/30 06:23:53;;;;;;;5.17;4.67;;;;;;;;;;4975366;28;20197;-92
2021/11/30 06:26:21;;;;;;;4.23;3.77;;;;;;;;;;4975292;28;20280;-93
2021/11/30 06:28:54;;;;;;;3.13;2.83;;;;;;;;;;4975342;28;20246;-92
2021/11/30 06:31:32;;;;;;;1.70;1.60;;;;;;;;;;4975567;28;20201;-93
2021/11/30 06:34:06;;;;;;;2.90;2.30;;;;;;;;;;4974961;28;20649;-92
2021/11/30 06:36:39;;;;;;;4.10;3.20;;;;;;;;;;4974822;28;20673;-92
2021/11/30 06:39:07;;;;;;;3.40;2.27;;;;;;;;;;4974326;28;20223;-92
2021/11/30 06:41:46;;;;;;;1.40;1.30;;;;;;;;;;4975210;28;20252;-92
2021/11/30 06:44:14;;;;;;;2.30;2.03;;;;;;;;;;4975071;28;20200;-92
2021/11/30 06:46:42;;;;;;;1.23;1.13;;;;;;;;;;4974989;28;20205;-92
2021/11/30 06:49:10;;;;;;;0.80;0.80;;;;;;;;;;4974797;28;20203;-93
2021/11/30 06:51:38;;;;;;;0.83;0.83;;;;;;;;;;4974840;28;20201;-93
2021/11/30 06:54:05;;;;;;;1.90;1.60;;;;;;;;;;4974938;28;20205;-91
2021/11/30 06:56:32;;;;;;;2.90;2.50;;;;;;;;;;4974678;28;20320;-91
2021/11/30 06:59:00;;;;;;;2.47;2.27;;;;;;;;;;4974491;28;20204;-91
2021/11/30 07:01:30;;;;;;;2.60;2.40;;;;;;;;;;4974975;28;20659;-93
2021/11/30 07:04:00;;;;;;;2.50;2.27;;;;;;;;;;4974884;28;20208;-92
2021/11/30 07:06:34;;;;;;;2.03;1.83;;;;;;;;;;4974679;28;20201;-93
2021/11/30 07:09:15;;;;;;;1.70;1.60;;;;;;;;;;4974317;28;20205;-93
2021/11/30 07:11:57;;;;;;;2.27;2.00;;;;;;;;;;4974602;28;20245;-92
2021/11/30 07:14:26;;;;;;;3.70;2.83;;;;;;;;;;4974616;28;20219;-94
2021/11/30 07:16:53;;;;;;;2.50;2.27;;;;;;;;;;4974063;28;20316;-94
2021/11/30 07:19:22;;;;;;;2.20;2.00;;;;;;;;;;4973850;28;20203;-93
2021/11/30 07:21:50;;;;;;;1.63;1.53;;;;;;;;;;4974444;28;20197;-93
2021/11/30 07:24:17;;;;;;;1.63;1.53;;;;;;;;;;4974741;28;20294;-94
2021/11/30 07:26:45;;;;;;;1.40;1.30;;;;;;;;;;4974429;28;20208;-93
2021/11/30 07:29:12;;;;;;;1.40;1.30;;;;;;;;;;4974054;28;20200;-94
2021/11/30 07:31:41;;;;;;;1.40;1.30;;;;;;;;;;4974391;28;20212;-94
2021/11/30 07:34:08;;;;;;;1.33;1.23;;;;;;;;;;4974284;28;20205;-93
2021/11/30 07:36:37;;;;;;;1.50;1.40;;;;;;;;;;4974291;28;20279;-92
2021/11/30 07:39:07;;;;;;;1.67;1.57;;;;;;;;;;4974409;28;20208;-95
2021/11/30 07:41:35;;;;;;;2.30;2.10;;;;;;;;;;4974167;28;20217;-92
2021/11/30 07:44:09;;;;;;;3.60;3.30;;;;;;;;;;4974453;28;20207;-93
2021/11/30 07:46:39;;;;;;;2.00;1.90;;;;;;;;;;4974588;28;20201;-95
2021/11/30 07:49:07;;;;;;;2.43;2.23;;;;;;;;;;4973986;28;20570;-93
2021/11/30 07:51:39;;;;;;;1.37;1.27;;;;;;;;;;4976860;28;20220;-93
2021/11/30 07:54:07;;;;;;;1.60;1.50;;;;;;;;;;4977982;28;20201;-94
2021/11/30 07:56:35;;;;;;;1.37;1.27;;;;;;;;;;4977386;28;20299;-92
2021/11/30 07:59:02;;;;;;;1.80;1.70;;;;;;;;;;4977839;28;20263;-92
2021/11/30 08:01:31;;;;;;;3.10;2.80;;;;;;;;;;4978385;28;20283;-92
2021/11/30 08:03:58;;;;;;;1.67;1.57;;;;;;;;;;4978383;28;20200;-92
2021/11/30 08:06:31;;;;;;;2.07;1.90;;;;;;;;;;4978019;28;20661;-93
2021/11/30 08:09:00;;;;;;;1.90;1.70;;;;;;;;;;4977727;28;20239;-92
2021/11/30 08:11:30;;;;;;;2.30;2.07;;;;;;;;;;4977848;28;20197;-93
2021/11/30 08:14:07;;;;;;;1.67;1.57;;;;;;;;;;4977709;28;20204;-92
2021/11/30 08:16:34;;;;;;;2.83;2.07;;;;;;;;;;4977403;28;20304;-92
2021/11/30 08:19:01;;;;;;;1.97;1.87;;;;;;;;;;4977266;28;20240;-92
2021/11/30 08:21:30;;;;;;;1.70;1.60;;;;;;;;;;4977484;28;20225;-92
2021/11/30 08:23:57;;;;;;;1.70;1.60;;;;;;;;;;4977325;28;20205;-92
2021/11/30 08:26:26;;;;;;;2.00;1.57;;;;;;;;;;4977430;28;20292;-93
2021/11/30 08:28:53;;;;;;;1.30;1.20;;;;;;;;;;4977427;28;20229;-93
2021/11/30 08:31:21;;;;;;;1.80;1.70;;;;;;;;;;4977433;28;20233;-91
2021/11/30 08:33:48;;;;;;;2.50;2.30;;;;;;;;;;4977684;28;20581;-92
2021/11/30 08:36:15;;;;;;;1.87;1.77;;;;;;;;;;4977074;28;20244;-93
2021/11/30 08:38:52;;;;;;;1.57;1.47;;;;;;;;;;4977366;28;20201;-93
2021/11/30 08:41:20;;;;;;;2.23;2.03;;;;;;;;;;4977074;28;20204;-92
2021/11/30 08:43:49;;;;;;;1.60;1.50;;;;;;;;;;4977102;28;20225;-92
2021/11/30 08:46:16;;;;;;;1.60;1.50;;;;;;;;;;4977231;28;20679;-94
2021/11/30 08:48:44;;;;;;;1.87;1.77;;;;;;;;;;4977299;28;20284;-93
2021/11/30 08:51:12;;;;;;;1.90;1.70;;;;;;;;;;4977271;28;20209;-92
2021/11/30 08:53:39;;;;;;;1.43;1.33;;;;;;;;;;4977132;28;20197;-92
2021/11/30 08:56:08;;;;;;;1.50;1.40;;;;;;;;;;4976852;28;20232;-93
2021/11/30 08:58:36;;;;;;;1.10;1.10;;;;;;;;;;4977272;28;20661;-94
2021/11/30 09:01:05;;;;;;;4.57;1.50;;;;;;;;;;4976902;28;20297;-92
2021/11/30 09:03:32;;;;;;;1.40;1.30;;;;;;;;;;4975805;28;20197;-92
2021/11/30 09:06:00;;;;;;;2.97;1.93;;;;;;;;;;4976931;28;20197;-92
2021/11/30 09:08:27;;;;;;;1.60;1.50;;;;;;;;;;4976583;28;20736;-93
2021/11/30 09:10:55;;;;;;;2.50;2.30;;;;;;;;;;4976902;28;20309;-93
2021/11/30 09:13:22;;;;;;;2.20;2.10;;;;;;;;;;4976637;28;20213;-92
2021/11/30 09:15:49;;;;;;;1.80;1.70;;;;;;;;;;4976143;28;20723;-92
2021/11/30 09:18:18;;;;;;;1.77;1.63;;;;;;;;;;4977020;28;20271;-95
2021/11/30 09:20:46;;;;;;;3.00;2.13;;;;;;;;;;4976926;28;20205;-93
2021/11/30 09:23:13;;;;;;;2.20;2.00;;;;;;;;;;4976642;28;20201;-93
2021/11/30 09:25:41;;;;;;;1.63;1.53;;;;;;;;;;4976461;28;20204;-93
2021/11/30 09:51:38;;;;;;;2.80;2.60;;;;;;;;;;5066962;28;20550;-93
2021/11/30 09:54:06;;;;;;;2.97;2.73;;;;;;;;;;5066897;28;20273;-93
2021/11/30 09:56:33;;;;;;;2.73;2.40;;;;;;;;;;5066657;28;20202;-93
2021/11/30 09:59:00;;;;;;;1.90;1.80;;;;;;;;;;5066417;28;20280;-93
2021/11/30 10:01:28;;;;;;;2.30;2.10;;;;;;;;;;5066570;28;20292;-93
2021/11/30 10:03:55;;;;;;;2.60;2.40;;;;;;;;;;5066488;28;20233;-93
2021/11/30 10:06:22;;;;;;;2.63;2.43;;;;;;;;;;5066413;28;20228;-93
2021/11/30 10:08:55;;;;;;;2.63;2.30;;;;;;;;;;5065873;27;20231;-93
2021/11/30 10:11:34;;;;;;;1.87;1.77;;;;;;;;;;5066752;27;20209;-93
2021/11/30 10:14:10;;;;;;;1.83;1.73;;;;;;;;;;5066899;28;20634;-94
2021/11/30 10:16:37;;;;;;;2.20;2.00;;;;;;;;;;5066452;28;20197;-93
2021/11/30 10:19:04;;;;;;;3.03;1.90;;;;;;;;;;5066328;28;20619;-94
2021/11/30 10:21:32;;;;;;;1.87;1.77;;;;;;;;;;5066338;28;20185;-92
2021/11/30 10:24:02;;;;;;;1.70;1.60;;;;;;;;;;5066243;28;20226;-93
2021/11/30 10:26:33;;;;;;;1.63;1.53;;;;;;;;;;5066478;28;20581;-93
2021/11/30 10:29:05;;;;;;;1.70;1.60;;;;;;;;;;5066525;28;20206;-92
2021/11/30 10:31:34;;;;;;;1.93;1.83;;;;;;;;;;5066258;28;20178;-94
2021/11/30 10:34:10;;;;;;;2.93;2.73;;;;;;;;;;5066006;28;20244;-96
2021/11/30 10:36:45;;;;;;;2.80;2.60;;;;;;;;;;5066178;28;20193;-93
2021/11/30 10:39:19;;;;;;;3.47;2.70;;;;;;;;;;5065937;28;20185;-93
2021/11/30 10:41:48;;;;;;;2.60;2.40;;;;;;;;;;5066250;28;20184;-93
2021/11/30 10:44:16;;;;;;;3.50;3.20;;;;;;;;;;5065962;27;20269;-93
2021/11/30 10:46:43;;;;;;;3.57;3.07;;;;;;;;;;5066807;27;20631;-94
2021/11/30 10:49:11;;;;;;;4.67;4.27;;;;;;;;;;5065815;28;20209;-93
2021/11/30 10:51:45;;;;;;;3.63;3.33;;;;;;;;;;5057399;28;20238;-93
2021/11/30 10:54:13;;;;;;;2.97;2.70;;;;;;;;;;5052285;28;20186;-93
2021/11/30 10:57:02;;;;;;;2.10;1.90;;;;;;;;;;5052051;28;20194;-93
2021/11/30 10:59:31;;;;;;;2.03;1.93;;;;;;;;;;5052077;28;20245;-93
2021/11/30 11:01:58;;;;;;;1.73;1.63;;;;;;;;;;5052189;28;20233;-94
2021/11/30 11:04:29;;;;;;;1.87;1.77;;;;;;;;;;5052101;28;20198;-93
2021/11/30 11:07:09;;;;;;;2.47;2.27;;;;;;;;;;5052153;28;20560;-94
2021/11/30 11:09:42;;;;;;;4.07;3.67;;;;;;;;;;5052515;28;20588;-92
2021/11/30 11:12:12;;;;;;;2.70;2.27;;;;;;;;;;5052331;28;20273;-93
2021/11/30 11:14:48;;;;;;;2.33;2.13;;;;;;;;;;5051944;28;20200;-93
2021/11/30 11:17:28;;;;;;;2.40;2.20;;;;;;;;;;5051902;28;20197;-94
2021/11/30 11:19:55;;;;;;;2.53;2.30;;;;;;;;;;5050781;28;20222;-92
2021/11/30 11:22:24;;;;;;;3.83;2.20;;;;;;;;;;5052184;28;20634;-95
2021/11/30 11:24:52;;;;;;;2.87;2.00;;;;;;;;;;5051805;28;20254;-94
2021/11/30 11:27:30;;;;;;;2.10;2.00;;;;;;;;;;5051678;28;20281;-94
2021/11/30 11:29:57;;;;;;;2.43;2.23;;;;;;;;;;5051828;28;20182;-95
2021/11/30 11:32:25;;;;;;;2.93;2.27;;;;;;;;;;5051648;28;20194;-93
2021/11/30 11:34:52;;;;;;;3.20;2.57;;;;;;;;;;5051749;28;20276;-93
2021/11/30 11:37:20;;;;;;;3.40;3.10;;;;;;;;;;5051639;28;20194;-94
2021/11/30 11:39:50;;;;;;;3.17;2.90;;;;;;;;;;5051690;28;20278;-94
2021/11/30 11:42:20;;;;;;;2.77;2.07;;;;;;;;;;5051769;28;20292;-94
2021/11/30 11:44:50;;;;;;;2.00;1.80;;;;;;;;;;5052316;28;20236;-94
2021/11/30 11:47:22;;;;;;;1.80;1.70;;;;;;;;;;5051735;27;20201;-95
2021/11/30 11:49:51;;;;;;;4.67;3.07;;;;;;;;;;5051717;28;20617;-93
2021/11/30 11:52:23;;;;;;;3.20;2.90;;;;;;;;;;5051598;28;20709;-94
2021/11/30 11:55:02;;;;;;;3.73;3.20;;;;;;;;;;5052262;28;20217;-93
2021/11/30 11:57:30;;;;;;;3.17;2.87;;;;;;;;;;5052011;27;20193;-93
2021/11/30 12:00:15;;;;;;;1.90;1.80;;;;;;;;;;5051387;28;20236;-93
2021/11/30 12:02:50;;;;;;;3.53;2.23;;;;;;;;;;5051037;28;20197;-94
2021/11/30 12:05:17;;;;;;;2.13;1.90;;;;;;;;;;5051428;28;20284;-94
2021/11/30 12:08:02;;;;;;;2.20;2.00;;;;;;;;;;5051844;28;20202;-94
2021/11/30 12:10:31;;;;;;;3.30;3.00;;;;;;;;;;5050055;28;20208;-94
2021/11/30 12:13:19;;;;;;;3.00;2.80;;;;;;;;;;5051295;28;20639;-93
2021/11/30 12:16:04;;;;;;;3.00;2.70;;;;;;;;;;5051286;28;20186;-94
2021/11/30 12:18:35;;;;;;;2.77;2.57;;;;;;;;;;5051412;28;20213;-94
2021/11/30 12:21:14;;;;;;;3.80;3.50;;;;;;;;;;5050968;28;20226;-93
2021/11/30 12:23:42;;;;;;;3.20;2.77;;;;;;;;;;5050872;28;20199;-94
2021/11/30 12:26:34;;;;;;;4.03;3.63;;;;;;;;;;5050936;28;20202;-94
2021/11/30 12:29:04;;;;;;;2.77;2.57;;;;;;;;;;5050893;28;20692;-93
2021/11/30 12:31:35;;;;;;;3.13;2.83;;;;;;;;;;5050848;28;20266;-92
2021/11/30 12:34:02;;;;;;;2.47;2.27;;;;;;;;;;5051039;28;20623;-93
2021/11/30 12:36:33;;;;;;;3.20;2.50;;;;;;;;;;5051131;28;20661;-93
2021/11/30 12:39:01;;;;;;;2.23;2.07;;;;;;;;;;5051051;28;20212;-94
2021/11/30 12:41:30;;;;;;;2.83;2.63;;;;;;;;;;5050494;28;20226;-95
2021/11/30 12:43:59;;;;;;;2.47;2.27;;;;;;;;;;5050720;28;20277;-94
2021/11/30 12:46:33;;;;;;;2.70;2.50;;;;;;;;;;5051278;28;20289;-94
2021/11/30 12:49:02;;;;;;;2.53;2.33;;;;;;;;;;5050948;28;20654;-94
2021/11/30 12:51:33;;;;;;;2.53;2.33;;;;;;;;;;5049991;28;20229;-94
2021/11/30 12:54:01;;;;;;;2.40;2.20;;;;;;;;;;5050470;27;20276;-95
2021/11/30 12:56:48;;;;;;;3.80;2.97;;;;;;;;;;5050640;28;20206;-93
2021/11/30 12:59:52;;;;;;;2.40;2.20;;;;;;;;;;5050558;27;20262;-94
2021/11/30 13:02:24;;;;;;;2.40;2.20;;;;;;;;;;5050464;28;20197;-94
2021/11/30 13:04:53;;;;;;;2.50;2.30;;;;;;;;;;5050733;28;20250;-94
2021/11/30 13:07:23;;;;;;;4.00;2.50;;;;;;;;;;5050763;28;20198;-94
2021/11/30 13:09:51;;;;;;;3.27;2.97;;;;;;;;;;5050323;28;20198;-92
2021/11/30 13:12:21;;;;;;;3.90;2.93;;;;;;;;;;5050134;28;20250;-94
2021/11/30 13:14:49;;;;;;;2.97;2.67;;;;;;;;;;5049740;28;20202;-92
2021/11/30 13:17:17;;;;;;;3.40;3.10;;;;;;;;;;5050083;28;20251;-94
2021/11/30 13:19:48;;;;;;;2.83;2.17;;;;;;;;;;5049968;28;20280;-94
2021/11/30 13:22:16;;;;;;;2.97;2.70;;;;;;;;;;5050021;28;20186;-94
2021/11/30 13:24:46;;;;;;;2.40;2.20;;;;;;;;;;5050083;28;20658;-94
2021/11/30 13:27:16;;;;;;;2.10;2.00;;;;;;;;;;5050410;28;20225;-93
2021/11/30 13:29:58;;;;;;;2.70;2.50;;;;;;;;;;5049888;28;20569;-94
2021/11/30 13:32:28;;;;;;;3.30;3.00;;;;;;;;;;5050015;28;20657;-93
2021/11/30 13:35:12;;;;;;;3.53;3.13;;;;;;;;;;5050116;28;20205;-93
2021/11/30 13:37:41;;;;;;;2.93;2.63;;;;;;;;;;5049966;28;20179;-93
2021/11/30 13:40:10;;;;;;;3.13;2.83;;;;;;;;;;5049693;28;20198;-93
2021/11/30 13:42:48;;;;;;;3.30;2.43;;;;;;;;;;5049855;28;20197;-93
2021/11/30 13:45:15;;;;;;;2.60;2.40;;;;;;;;;;5049407;28;20281;-93
2021/11/30 13:47:48;;;;;;;3.07;2.77;;;;;;;;;;5049784;27;20212;-93
2021/11/30 13:50:17;;;;;;;2.90;2.70;;;;;;;;;;5049448;28;20234;-92
2021/11/30 13:52:44;;;;;;;3.07;2.77;;;;;;;;;;5050199;28;20255;-93
2021/11/30 13:55:12;;;;;;;3.20;2.90;;;;;;;;;;5049698;28;20246;-94
2021/11/30 13:57:40;;;;;;;5.43;5.03;;;;;;;;;;5049668;28;20270;-94
2021/11/30 14:00:14;;;;;;;3.60;3.30;;;;;;;;;;5049615;28;20279;-92
2021/11/30 14:02:44;;;;;;;5.80;3.33;;;;;;;;;;5049821;28;20196;-92
2021/11/30 14:05:13;;;;;;;4.67;4.27;;;;;;;;;;5049760;28;20202;-93
2021/11/30 14:07:43;;;;;;;3.73;3.33;;;;;;;;;;5049583;28;20194;-94
2021/11/30 14:10:20;;;;;;;3.20;2.90;;;;;;;;;;5049590;28;20258;-92
2021/11/30 14:12:48;;;;;;;3.03;2.73;;;;;;;;;;5050070;28;20578;-94
2021/11/30 14:15:16;;;;;;;4.07;3.53;;;;;;;;;;5049370;28;20208;-94
2021/11/30 14:17:45;;;;;;;4.33;3.60;;;;;;;;;;5049144;28;20566;-93
2021/11/30 14:20:22;;;;;;;4.43;3.63;;;;;;;;;;5049368;28;20194;-94
2021/11/30 14:22:51;;;;;;;4.83;3.90;;;;;;;;;;5049956;27;20190;-94
2021/11/30 14:25:20;;;;;;;3.97;3.63;;;;;;;;;;5049238;28;20263;-93
2021/11/30 14:27:49;;;;;;;3.50;3.20;;;;;;;;;;5052529;28;20317;-93
2021/11/30 14:30:18;;;;;;;4.33;3.57;;;;;;;;;;5053900;27;20224;-93
2021/11/30 14:32:46;;;;;;;4.03;3.17;;;;;;;;;;5052854;28;20198;-92
2021/11/30 14:35:16;;;;;;;4.13;3.63;;;;;;;;;;5052574;28;20194;-93
2021/11/30 14:37:49;;;;;;;4.00;3.70;;;;;;;;;;5052445;28;20290;-92
2021/11/30 14:40:20;;;;;;;3.97;3.60;;;;;;;;;;5053353;28;20277;-93
2021/11/30 14:42:50;;;;;;;5.03;3.93;;;;;;;;;;5052671;27;20208;-92
2021/11/30 14:45:32;;;;;;;5.20;4.13;;;;;;;;;;5052401;28;20269;-93
2021/11/30 14:48:08;;;;;;;3.67;3.37;;;;;;;;;;5052516;28;20215;-94
2021/11/30 14:50:38;;;;;;;3.93;3.63;;;;;;;;;;5052170;28;20226;-92
2021/11/30 14:53:10;;;;;;;3.93;3.63;;;;;;;;;;5052624;28;20190;-93
2021/11/30 14:55:43;;;;;;;3.87;3.57;;;;;;;;;;5052578;28;20234;-93
2021/11/30 14:58:17;;;;;;;3.80;3.50;;;;;;;;;;5052476;28;20190;-92
2021/11/30 15:00:46;;;;;;;4.97;4.40;;;;;;;;;;5052570;28;20640;-92
2021/11/30 15:03:15;;;;;;;5.57;4.97;;;;;;;;;;5052236;28;20198;-92
2021/11/30 15:05:45;;;;;;;7.33;6.57;;;;;;;;;;5052134;27;20217;-93
2021/11/30 15:08:31;;;;;;;6.70;5.83;;;;;;;;;;5052787;28;20250;-92
2021/11/30 15:11:02;;;;;;;6.00;5.33;;;;;;;;;;5052808;28;20638;-94
2021/11/30 15:13:38;;;;;;;8.00;7.20;;;;;;;;;;5052369;28;20258;-93
2021/11/30 15:16:05;;;;;;;13.13;10.30;;;;;;;;;;5051999;27;20197;-93
2021/11/30 15:18:33;;;;;;;16.73;11.83;;;;;;;;;;5052067;28;20224;-92
2021/11/30 15:21:00;;;;;;;17.90;11.63;;;;;;;;;;5051840;28;20290;-93
2021/11/30 15:23:28;;;;;;;22.53;14.33;;;;;;;;;;5052122;28;20692;-93
2021/11/30 15:25:57;;;;;;;8.50;7.33;;;;;;;;;;5035208;28;20742;-93